createdAt,value
2015-09-12T00:00:57.176Z,19.7
2015-09-12T00:06:01.107Z,19.7
2015-09-12T00:11:02.928Z,19.8
2015-09-12T00:16:05.016Z,19.8
2015-09-12T00:21:08.698Z,19.7
2015-09-12T00:26:10.724Z,19.7
2015-09-12T00:31:14.076Z,19.7
2015-09-12T00:36:15.039Z,19.7
2015-09-12T00:41:17.285Z,19.7
2015-09-12T00:46:20.795Z,19.7
2015-09-12T00:51:22.278Z,19.7
2015-09-12T00:56:24.098Z,19.7
2015-09-12T01:01:26.452Z,19.7
2015-09-12T01:06:28.649Z,19.7
2015-09-12T01:11:30.909Z,19.7
2015-09-12T01:16:33.419Z,19.7
2015-09-12T01:22:24.166Z,19.7
2015-09-12T01:27:26.877Z,19.7
2015-09-12T01:32:29.097Z,19.6
2015-09-12T01:37:32.504Z,19.7
2015-09-12T01:42:33.355Z,19.6
2015-09-12T01:47:35.677Z,19.7
2015-09-12T01:52:38.422Z,19.7
2015-09-12T01:57:40.778Z,19.7
2015-09-12T02:02:42.492Z,19.7
2015-09-12T02:07:46.658Z,19.7
2015-09-12T02:12:47.541Z,19.7
2015-09-12T02:17:49.301Z,19.7
2015-09-12T02:22:53.561Z,19.6
2015-09-12T02:27:54.460Z,19.7
2015-09-12T02:32:56.753Z,19.7
2015-09-12T02:37:59.137Z,19.7
2015-09-12T02:43:02.115Z,19.6
2015-09-12T02:48:03.642Z,19.7
2015-09-12T02:53:05.883Z,19.7
2015-09-12T02:58:08.104Z,19.7
2015-09-12T03:03:10.427Z,19.6
2015-09-12T03:08:12.203Z,19.6
2015-09-12T03:13:16.369Z,19.6
2015-09-12T03:18:17.301Z,19.6
2015-09-12T03:23:19.592Z,19.7
2015-09-12T03:28:21.851Z,19.6
2015-09-12T03:33:24.171Z,19.6
2015-09-12T03:38:27.901Z,19.7
2015-09-12T03:43:28.692Z,19.6
2015-09-12T03:48:30.999Z,19.6
2015-09-12T03:53:33.666Z,19.6
2015-09-12T03:58:36.737Z,19.7
2015-09-12T04:03:37.935Z,19.6
2015-09-12T04:08:40.149Z,19.6
2015-09-12T04:13:42.015Z,19.6
2015-09-12T04:18:44.853Z,19.7
2015-09-12T04:23:47.082Z,19.7
2015-09-12T04:28:49.451Z,19.6
2015-09-12T04:33:51.679Z,19.6
2015-09-12T04:38:53.517Z,19.6
2015-09-12T04:43:56.325Z,19.6
2015-09-12T04:48:59.990Z,19.7
2015-09-12T04:54:00.780Z,19.6
2015-09-12T04:59:03.181Z,19.6
2015-09-12T05:04:05.578Z,19.6
2015-09-12T05:09:07.879Z,19.7
2015-09-12T05:14:10.170Z,19.7
2015-09-12T05:19:12.700Z,19.6
2015-09-12T05:24:15.072Z,19.6
2015-09-12T05:29:17.457Z,19.6
2015-09-12T05:34:19.652Z,19.6
2015-09-12T05:39:21.523Z,19.6
2015-09-12T05:44:23.766Z,19.6
2015-09-12T05:49:26.057Z,19.6
2015-09-12T05:54:28.317Z,19.6
2015-09-12T05:59:30.562Z,19.6
2015-09-12T06:04:32.822Z,19.6
2015-09-12T06:09:34.675Z,19.6
2015-09-12T06:14:37.464Z,19.6
2015-09-12T06:19:39.942Z,19.6
2015-09-12T06:24:42.968Z,19.6
2015-09-12T06:29:45.259Z,19.6
2015-09-12T06:34:48.363Z,19.6
2015-09-12T06:39:50.576Z,19.6
2015-09-12T06:44:52.883Z,19.7
2015-09-12T06:49:54.674Z,19.7
2015-09-12T06:54:58.558Z,19.7
2015-09-12T07:00:00.113Z,19.7
2015-09-12T07:05:02.968Z,19.7
2015-09-12T07:10:05.697Z,19.7
2015-09-12T07:15:08.410Z,19.7
2015-09-12T07:20:10.216Z,19.7
2015-09-12T07:25:12.960Z,19.7
2015-09-12T07:30:15.658Z,19.7
2015-09-12T07:35:17.089Z,19.7
2015-09-12T07:40:20.771Z,19.7
2015-09-12T07:45:22.592Z,19.7
2015-09-12T07:50:24.461Z,19.8
2015-09-12T07:55:26.737Z,19.8
2015-09-12T08:00:28.997Z,19.8
2015-09-12T08:05:31.319Z,19.8
2015-09-12T08:10:33.578Z,19.7
2015-09-12T08:15:35.839Z,19.8
2015-09-12T08:20:37.723Z,19.7
2015-09-12T08:25:41.309Z,19.7
2015-09-12T08:30:42.741Z,19.8
2015-09-12T08:35:45.891Z,19.8
2015-09-12T08:40:48.120Z,19.8
2015-09-12T08:45:51.490Z,19.8
2015-09-12T08:50:53.702Z,19.8
2015-09-12T08:55:55.962Z,19.8
2015-09-12T09:00:57.754Z,19.8
2015-09-12T09:06:00.107Z,19.8
2015-09-12T09:11:02.759Z,19.8
2015-09-12T09:16:05.656Z,19.9
2015-09-12T09:21:07.306Z,19.9
2015-09-12T09:26:09.614Z,19.9
2015-09-12T09:31:11.873Z,19.9
2015-09-12T09:36:14.181Z,19.9
2015-09-12T09:41:17.097Z,20
2015-09-12T09:46:18.903Z,19.9
2015-09-12T09:51:22.382Z,20
2015-09-12T09:56:23.360Z,20.1
2015-09-12T10:01:25.558Z,20.2
2015-09-12T10:06:27.815Z,20.2
2015-09-12T10:11:30.106Z,20.2
2015-09-12T10:16:32.336Z,20.2
2015-09-12T10:21:34.751Z,20.3
2015-09-12T10:26:36.979Z,20.3
2015-09-12T10:31:39.443Z,20.4
2015-09-12T10:36:41.562Z,20.4
2015-09-12T10:41:43.806Z,20.4
2015-09-12T10:46:47.847Z,20.3
2015-09-12T10:51:49.295Z,20.3
2015-09-12T10:56:51.602Z,20.3
2015-09-12T11:01:53.940Z,20.2
2015-09-12T11:06:57.232Z,20.1
2015-09-12T11:11:59.553Z,20.1
2015-09-12T11:17:01.376Z,20.1
2015-09-12T11:22:05.526Z,20.1
2015-09-12T11:27:06.332Z,20.1
2015-09-12T11:32:08.827Z,20.1
2015-09-12T11:37:10.959Z,20.1
2015-09-12T11:42:13.266Z,20.1
2015-09-12T11:47:15.542Z,20.1
2015-09-12T11:52:17.848Z,20.1
2015-09-12T11:57:20.124Z,20.1
2015-09-12T12:02:21.930Z,20.1
2015-09-12T12:07:25.519Z,20.1
2015-09-12T12:12:26.858Z,20.1
2015-09-12T12:17:29.226Z,20.1
2015-09-12T12:22:31.845Z,20.1
2015-09-12T12:27:36.058Z,20.1
2015-09-12T12:32:37.256Z,20.1
2015-09-12T12:37:39.187Z,20.1
2015-09-12T12:42:41.416Z,20.1
2015-09-12T12:47:43.691Z,20.1
2015-09-12T12:52:47.217Z,20.1
2015-09-12T12:57:49.414Z,20.1
2015-09-12T13:02:51.937Z,20.1
2015-09-12T13:07:53.760Z,20.1
2015-09-12T13:12:55.895Z,20.1
2015-09-12T13:17:58.154Z,20.1
2015-09-12T13:23:00.477Z,20.1
2015-09-12T13:28:02.689Z,20.1
2015-09-12T13:33:04.965Z,20.1
2015-09-12T13:38:07.209Z,20.1
2015-09-12T13:43:09.312Z,20.1
2015-09-12T13:48:13.495Z,20.1
2015-09-12T13:53:14.754Z,20
2015-09-12T13:58:17.155Z,20
2015-09-12T14:03:19.549Z,20
2015-09-12T14:08:22.354Z,20
2015-09-12T14:13:24.262Z,20
2015-09-12T14:18:26.522Z,20
2015-09-12T14:23:28.821Z,20
2015-09-12T14:28:31.176Z,20
2015-09-12T14:33:32.905Z,20
2015-09-12T14:38:36.712Z,20
2015-09-12T14:43:39.314Z,20
2015-09-12T14:48:40.154Z,20.1
2015-09-12T14:53:43.289Z,20
2015-09-12T14:58:45.502Z,20.1
2015-09-12T15:03:47.979Z,20
2015-09-12T15:08:50.239Z,20
2015-09-12T15:13:52.999Z,20
2015-09-12T15:18:54.227Z,20
2015-09-12T15:23:56.988Z,20
2015-09-12T15:28:59.544Z,20
2015-09-12T15:34:01.458Z,20
2015-09-12T15:39:03.796Z,20
2015-09-12T15:44:07.884Z,20
2015-09-12T15:49:10.144Z,19.9
2015-09-12T15:54:12.435Z,19.9
2015-09-12T15:59:14.273Z,19.9
2015-09-12T16:04:17.533Z,19.9
2015-09-12T16:09:19.246Z,19.9
2015-09-12T16:14:21.458Z,19.9
2015-09-12T16:19:23.828Z,19.9
2015-09-12T16:24:27.431Z,19.9
2015-09-12T16:29:28.301Z,19.9
2015-09-12T16:34:30.592Z,19.9
2015-09-12T16:39:32.851Z,19.9
2015-09-12T16:44:34.627Z,19.9
2015-09-12T16:49:37.371Z,19.9
2015-09-12T16:54:39.582Z,19.9
2015-09-12T16:59:41.561Z,19.9
2015-09-12T17:04:44.243Z,19.9
2015-09-12T17:09:46.783Z,19.9
2015-09-12T17:14:48.809Z,19.9
2015-09-12T17:19:51.100Z,19.9
2015-09-12T17:24:54.281Z,19.9
2015-09-12T17:29:55.134Z,19.9
2015-09-12T17:34:58.191Z,19.9
2015-09-12T17:40:00.593Z,19.9
2015-09-12T17:45:02.524Z,19.9
2015-09-12T17:50:05.236Z,19.9
2015-09-12T17:55:08.804Z,19.9
2015-09-12T18:00:12.859Z,19.9
2015-09-12T18:05:14.714Z,19.9
2015-09-12T18:10:17.036Z,19.9
2015-09-12T18:15:19.232Z,19.9
2015-09-12T18:20:21.851Z,19.9
2015-09-12T18:25:23.922Z,19.9
2015-09-12T18:30:26.073Z,19.9
2015-09-12T18:35:29.598Z,19.9
2015-09-12T18:40:33.124Z,19.9
2015-09-12T18:45:33.664Z,19.9
2015-09-12T18:50:35.941Z,19.9
2015-09-12T18:55:39.512Z,19.9
2015-09-12T19:00:42.805Z,19.9
2015-09-12T19:05:44.143Z,19.9
2015-09-12T19:10:46.495Z,19.9
2015-09-12T19:15:48.755Z,19.9
2015-09-12T19:20:51.031Z,19.9
2015-09-12T19:25:53.307Z,19.9
2015-09-12T19:30:55.598Z,19.9
2015-09-12T19:35:57.371Z,19.9
2015-09-12T19:41:01.257Z,19.9
2015-09-12T19:46:02.437Z,19.9
2015-09-12T19:51:04.667Z,19.9
2015-09-12T19:56:07.020Z,19.9
2015-09-12T20:01:09.279Z,19.9
2015-09-12T20:06:11.570Z,19.9
2015-09-12T20:11:13.908Z,19.8
2015-09-12T20:16:16.926Z,19.8
2015-09-12T20:21:18.053Z,19.9
2015-09-12T20:26:21.423Z,19.9
2015-09-12T20:31:23.157Z,19.9
2015-09-12T20:36:24.995Z,19.9
2015-09-12T20:41:27.130Z,19.9
2015-09-12T20:46:30.328Z,19.9
2015-09-12T20:51:31.712Z,19.9
2015-09-12T20:56:34.345Z,19.9
2015-09-12T21:01:37.480Z,19.9
2015-09-12T21:06:39.334Z,19.9
2015-09-12T21:11:42.812Z,19.9
2015-09-12T21:16:44.276Z,19.9
2015-09-12T21:21:47.707Z,19.9
2015-09-12T21:26:49.295Z,19.9
2015-09-12T21:31:51.992Z,19.9
2015-09-12T21:36:54.268Z,19.9
2015-09-12T21:41:56.606Z,19.9
2015-09-12T21:46:58.928Z,19.9
2015-09-12T21:52:01.526Z,19.9
2015-09-12T21:57:03.161Z,19.9
2015-09-12T22:02:06.218Z,19.9
2015-09-12T22:07:08.758Z,19.9
2015-09-12T22:12:10.300Z,19.9
2015-09-12T22:17:12.558Z,19.9
2015-09-12T22:22:14.911Z,19.9
2015-09-12T22:27:17.203Z,19.9
2015-09-12T22:32:19.447Z,19.9
2015-09-12T22:37:21.238Z,19.9
2015-09-12T22:42:25.122Z,19.9
2015-09-12T22:47:26.226Z,19.8
2015-09-12T22:52:28.485Z,19.8
2015-09-12T22:57:30.824Z,19.8
2015-09-12T23:02:33.114Z,19.9
2015-09-12T23:07:36.444Z,19.8
2015-09-12T23:12:40.010Z,19.8
2015-09-12T23:17:41.810Z,19.8
2015-09-12T23:22:45.579Z,19.8
2015-09-12T23:27:47.145Z,19.8
2015-09-12T23:32:49.107Z,19.8
2015-09-12T23:37:51.416Z,19.8
2015-09-12T23:42:53.661Z,19.8
2015-09-12T23:47:55.952Z,19.8
2015-09-12T23:52:58.154Z,19.8
2015-09-12T23:58:00.460Z,19.8
